Time;durP1;ratioP1;P1;durP2;ratioP2;P2;SDS_P1;SDS_P2;PMS_P1;PMS_P2;Temp;Humidity;BMP_temperature;BMP_pressure;BME280_temperature;BME280_humidity;BME280_pressure;Samples;Min_cycle;Max_cycle;Signal;HPM_P1;HPM_P2
2023/09/11 00:01:59;;;;;;;6.70;4.53;;;;;;;21.25;47.64;99302.91;4366623;32;33487;-85
2023/09/11 00:04:26;;;;;;;7.72;4.25;;;;;;;21.19;47.93;99304.84;4373743;32;33705;-93
2023/09/11 00:06:54;;;;;;;7.60;4.50;;;;;;;21.24;47.57;99302.94;4372123;32;35517;-86
2023/09/11 00:09:21;;;;;;;8.25;4.87;;;;;;;21.27;47.58;99295.81;4374723;32;34477;-86
2023/09/11 00:11:49;;;;;;;7.35;4.72;;;;;;;21.26;47.56;99298.50;4374181;32;33593;-95
2023/09/11 00:14:17;;;;;;;8.40;4.87;;;;;;;21.20;47.70;99296.88;4375489;32;33995;-85
2023/09/11 00:16:44;;;;;;;10.18;5.28;;;;;;;21.23;47.68;99295.94;4375492;32;34136;-91
2023/09/11 00:19:12;;;;;;;9.32;5.20;;;;;;;21.23;47.79;99296.81;4374803;32;34720;-89
2023/09/11 00:21:40;;;;;;;7.80;4.57;;;;;;;21.13;47.80;99284.78;4375329;32;34166;-88
2023/09/11 00:24:09;;;;;;;8.13;4.47;;;;;;;21.08;47.80;99289.34;4375683;32;34610;-87
2023/09/11 00:26:36;;;;;;;8.10;4.68;;;;;;;21.11;47.64;99282.22;4375232;32;35101;-87
2023/09/11 00:29:04;;;;;;;7.12;4.40;;;;;;;21.20;47.65;99288.97;4375322;32;34860;-90
2023/09/11 00:31:32;;;;;;;8.50;4.75;;;;;;;21.05;48.24;99281.50;4375429;32;33744;-89
2023/09/11 00:34:00;;;;;;;11.12;4.65;;;;;;;21.05;48.50;99286.78;4375579;32;33744;-86
2023/09/11 00:36:27;;;;;;;9.52;5.03;;;;;;;21.08;48.23;99281.44;4374392;32;34414;-86
2023/09/11 00:38:55;;;;;;;8.73;5.20;;;;;;;21.14;48.30;99281.28;4374435;32;33867;-87
2023/09/11 00:41:23;;;;;;;10.70;4.87;;;;;;;21.16;48.36;99283.84;4374484;32;34234;-95
2023/09/11 00:43:50;;;;;;;9.07;4.78;;;;;;;21.14;48.25;99274.22;4374861;32;33195;-88
2023/09/11 00:46:18;;;;;;;8.13;4.85;;;;;;;21.10;48.32;99279.59;4374801;32;34079;-84
2023/09/11 00:48:46;;;;;;;7.82;4.82;;;;;;;21.10;48.32;99275.22;4362280;32;33737;-86
2023/09/11 00:51:14;;;;;;;10.80;4.55;;;;;;;21.08;48.35;99277.00;4375155;32;33358;-93
2023/09/11 00:53:41;;;;;;;7.90;4.65;;;;;;;21.07;48.98;99266.53;4360753;32;33653;-86
2023/09/11 00:56:09;;;;;;;7.40;5.05;;;;;;;21.02;49.17;99273.69;4373261;32;33741;-87
2023/09/11 00:58:37;;;;;;;7.85;4.80;;;;;;;21.04;48.80;99270.09;4375469;32;34283;-86
2023/09/11 01:01:05;;;;;;;8.38;4.60;;;;;;;20.88;49.00;99267.03;4375416;32;33471;-87
2023/09/11 01:03:33;;;;;;;7.60;4.57;;;;;;;20.89;49.09;99262.63;4361232;32;33880;-86
2023/09/11 01:06:02;;;;;;;7.15;4.47;;;;;;;20.90;48.86;99266.97;4374255;32;33982;-86
2023/09/11 01:08:29;;;;;;;7.85;5.20;;;;;;;20.91;48.77;99263.47;4360429;32;34684;-91
2023/09/11 01:10:57;;;;;;;10.38;4.95;;;;;;;20.97;48.67;99265.06;4361447;32;33523;-86
2023/09/11 01:13:25;;;;;;;7.65;5.22;;;;;;;20.96;48.58;99272.09;4374769;32;34614;-92
2023/09/11 01:16:15;;;;;;;9.90;5.53;;;;;;;20.96;48.39;99264.19;4372859;32;35028;-88
2023/09/11 01:19:12;;;;;;;7.50;4.93;;;;;;;21.02;48.67;99268.41;4374637;32;35004;-86
2023/09/11 01:21:57;;;;;;;9.63;4.85;;;;;;;21.04;48.92;99264.84;4350546;32;33495;-95
2023/09/11 01:25:05;;;;;;;7.55;4.87;;;;;;;20.98;49.13;99269.41;4361053;32;33795;-84
2023/09/11 01:28:02;;;;;;;8.10;4.78;;;;;;;21.11;48.74;99266.38;4360374;32;35024;-86
2023/09/11 01:30:31;;;;;;;8.50;5.32;;;;;;;21.14;48.51;99265.44;4346932;32;33589;-89
2023/09/11 01:32:58;;;;;;;9.65;5.37;;;;;;;20.96;48.91;99260.69;4347729;32;33476;-95
2023/09/11 01:35:26;;;;;;;9.68;5.45;;;;;;;20.94;48.88;99268.63;4375215;32;33972;-86
2023/09/11 01:37:55;;;;;;;10.48;5.05;;;;;;;20.90;48.96;99262.56;4375324;32;34305;-86
2023/09/11 01:40:25;;;;;;;8.75;5.35;;;;;;;20.93;49.01;99259.00;4375759;32;33718;-86
2023/09/11 01:42:55;;;;;;;8.20;5.35;;;;;;;20.90;49.08;99265.22;4362985;32;34195;-92
2023/09/11 01:45:23;;;;;;;8.80;5.45;;;;;;;20.86;49.78;99260.94;4348275;32;33185;-85
2023/09/11 01:47:52;;;;;;;9.77;5.45;;;;;;;20.84;49.87;99257.50;4354050;32;34758;-85
2023/09/11 01:50:20;;;;;;;8.15;4.93;;;;;;;20.83;49.88;99266.28;4372847;32;33671;-85
2023/09/11 01:52:49;;;;;;;9.38;5.18;;;;;;;20.86;49.78;99260.06;4360838;32;33613;-96
2023/09/11 01:55:17;;;;;;;8.02;5.05;;;;;;;20.76;50.02;99259.47;4361505;32;34105;-85
2023/09/11 01:57:44;;;;;;;8.35;5.37;;;;;;;20.75;50.40;99259.50;4362338;32;33880;-86
2023/09/11 02:00:13;;;;;;;8.73;5.28;;;;;;;20.71;50.52;99263.97;4376375;32;34758;-88
2023/09/11 02:02:42;;;;;;;9.32;5.75;;;;;;;20.59;50.45;99257.28;4376480;32;33374;-86
2023/09/11 02:05:09;;;;;;;10.18;5.87;;;;;;;20.60;50.47;99266.03;4375498;32;34740;-87
2023/09/11 02:07:37;;;;;;;9.75;5.90;;;;;;;20.76;50.15;99267.38;4376541;32;34117;-86
2023/09/11 02:10:05;;;;;;;9.68;5.12;;;;;;;20.70;50.45;99264.91;4376081;32;34725;-94
2023/09/11 02:12:32;;;;;;;9.93;5.18;;;;;;;20.61;50.71;99267.78;4364716;32;33684;-86
2023/09/11 02:15:00;;;;;;;10.45;4.78;;;;;;;20.60;50.64;99263.41;4377300;32;33607;-95
2023/09/11 02:17:28;;;;;;;10.00;5.30;;;;;;;20.52;50.69;99265.38;4363626;32;35154;-96
2023/09/11 02:19:56;;;;;;;10.32;5.82;;;;;;;20.50;50.68;99257.53;4376294;32;34632;-85
2023/09/11 02:22:23;;;;;;;9.45;5.62;;;;;;;20.52;50.81;99254.84;4375227;32;33400;-85
2023/09/11 02:24:51;;;;;;;8.50;5.32;;;;;;;20.57;50.58;99259.09;4362137;32;33956;-85
2023/09/11 02:27:19;;;;;;;8.10;5.32;;;;;;;20.64;50.18;99255.38;4375603;32;33661;-85
2023/09/11 02:29:46;;;;;;;8.48;5.43;;;;;;;20.60;50.36;99263.41;4375386;32;33884;-86
2023/09/11 02:32:14;;;;;;;8.95;5.90;;;;;;;20.59;50.26;99259.91;4374161;32;33473;-86
2023/09/11 02:34:42;;;;;;;11.80;6.53;;;;;;;20.73;50.10;99259.56;4375019;32;34130;-96
2023/09/11 02:37:09;;;;;;;11.55;5.80;;;;;;;20.67;50.27;99259.69;4371264;32;33944;-95
2023/09/11 02:39:38;;;;;;;10.68;5.70;;;;;;;20.60;50.38;99261.63;4376812;32;33901;-85
2023/09/11 02:42:06;;;;;;;12.35;6.37;;;;;;;20.58;50.64;99259.97;4363400;32;34218;-86
2023/09/11 02:44:33;;;;;;;7.85;5.72;;;;;;;20.60;50.66;99252.88;4376415;32;34889;-85
2023/09/11 02:47:01;;;;;;;9.95;6.03;;;;;;;20.62;50.74;99256.34;4376445;32;33811;-86
2023/09/11 02:49:29;;;;;;;11.25;6.75;;;;;;;20.51;51.24;99253.97;4376648;32;33665;-86
2023/09/11 02:51:56;;;;;;;9.90;5.87;;;;;;;20.50;51.33;99262.81;4376651;32;32540;-85
2023/09/11 02:54:24;;;;;;;8.77;6.10;;;;;;;20.49;51.26;99254.87;4376353;32;33852;-87
2023/09/11 02:56:52;;;;;;;10.35;6.10;;;;;;;20.45;51.35;99261.13;4376336;32;34752;-96
2023/09/11 02:59:20;;;;;;;11.73;5.78;;;;;;;20.49;51.42;99254.87;4376670;32;34925;-86
2023/09/11 03:01:47;;;;;;;10.30;6.00;;;;;;;20.51;51.64;99253.13;4376704;32;33401;-86
2023/09/11 03:04:15;;;;;;;9.00;5.87;;;;;;;20.43;51.77;99255.94;4376704;32;35037;-86
2023/09/11 03:06:42;;;;;;;8.60;5.57;;;;;;;20.49;51.41;99250.50;4376579;32;33549;-96
2023/09/11 03:09:11;;;;;;;9.52;5.85;;;;;;;20.42;51.68;99255.06;4372982;32;33999;-85
2023/09/11 03:11:39;;;;;;;8.18;5.90;;;;;;;20.40;51.81;99251.59;4376249;32;33236;-86
2023/09/11 03:14:11;;;;;;;9.55;6.30;;;;;;;20.45;51.70;99242.69;4376124;32;34684;-87
2023/09/11 03:16:43;;;;;;;8.93;5.87;;;;;;;20.45;51.55;99248.84;4374048;32;35127;-85
2023/09/11 03:19:11;;;;;;;9.55;5.82;;;;;;;20.48;51.55;99245.25;4374423;32;33988;-87
2023/09/11 03:21:39;;;;;;;8.38;6.15;;;;;;;20.48;51.53;99247.91;4376655;32;33339;-86
2023/09/11 03:24:07;;;;;;;9.50;6.50;;;;;;;20.46;51.53;99240.06;4376204;32;34938;-85
2023/09/11 03:26:36;;;;;;;9.00;5.93;;;;;;;20.49;51.48;99242.59;4375840;32;34200;-87
2023/09/11 03:29:04;;;;;;;11.00;6.28;;;;;;;20.49;51.59;99241.72;4376351;32;33816;-85
2023/09/11 03:31:31;;;;;;;11.98;6.18;;;;;;;20.49;51.72;99239.09;4376227;32;33452;-86
2023/09/11 03:33:59;;;;;;;12.77;6.12;;;;;;;20.49;51.78;99244.34;4377104;32;34788;-85
2023/09/11 03:36:27;;;;;;;9.10;6.50;;;;;;;20.49;51.74;99244.34;4375630;32;35155;-96
2023/09/11 03:38:55;;;;;;;8.45;6.10;;;;;;;20.49;51.85;99244.34;4376177;32;34301;-86
2023/09/11 03:41:23;;;;;;;8.73;6.20;;;;;;;20.49;51.93;99245.25;4375985;32;34187;-86
2023/09/11 03:43:51;;;;;;;9.05;6.12;;;;;;;20.48;52.17;99251.38;4375560;32;34436;-86
2023/09/11 03:46:19;;;;;;;9.15;6.65;;;;;;;20.48;52.44;99243.50;4375861;32;35101;-96
2023/09/11 03:48:47;;;;;;;9.80;6.65;;;;;;;20.43;52.72;99242.75;4375755;32;34100;-86
2023/09/11 03:51:15;;;;;;;9.07;6.15;;;;;;;20.42;52.94;99248.94;4376418;32;34077;-95
2023/09/11 03:53:43;;;;;;;9.25;6.30;;;;;;;20.39;52.93;99254.28;4375568;32;33644;-94
2023/09/11 03:56:12;;;;;;;8.52;6.20;;;;;;;20.39;53.05;99246.37;4376215;32;34768;-94
2023/09/11 03:58:42;;;;;;;8.68;5.85;;;;;;;20.40;53.10;99235.78;4362638;32;34829;-87
2023/09/11 04:01:10;;;;;;;12.30;6.53;;;;;;;20.44;52.91;99238.34;4362141;32;33819;-85
2023/09/11 04:03:37;;;;;;;11.70;7.15;;;;;;;20.43;52.92;99242.75;4375512;32;34061;-86
2023/09/11 04:06:05;;;;;;;11.75;6.75;;;;;;;20.39;52.91;99235.84;4375637;32;34078;-86
2023/09/11 04:08:33;;;;;;;7.72;6.20;;;;;;;20.38;52.85;99232.34;4371524;32;33972;-86
2023/09/11 04:11:01;;;;;;;10.25;6.65;;;;;;;20.37;52.94;99224.47;4372539;32;33556;-85
2023/09/11 04:13:28;;;;;;;10.63;7.22;;;;;;;20.34;53.12;99235.97;4372104;32;33745;-85
2023/09/11 04:15:56;;;;;;;9.27;6.78;;;;;;;20.41;52.98;99231.37;4372451;32;32633;-86
2023/09/11 04:18:24;;;;;;;11.43;6.80;;;;;;;20.41;52.97;99231.37;4373307;32;34566;-96
2023/09/11 04:21:00;;;;;;;9.90;7.32;;;;;;;20.40;53.02;99230.53;4373146;32;33503;-85
2023/09/11 04:23:28;;;;;;;11.48;7.12;;;;;;;20.31;53.10;99230.78;4372856;32;34096;-89
2023/09/11 04:25:56;;;;;;;11.25;6.85;;;;;;;20.33;53.02;99222.81;4373864;32;34053;-95
2023/09/11 04:28:23;;;;;;;10.38;6.60;;;;;;;20.33;53.03;99217.56;4374149;32;33464;-86
2023/09/11 04:30:51;;;;;;;12.23;7.15;;;;;;;20.44;52.82;99225.19;4363761;32;33555;-90
2023/09/11 04:33:19;;;;;;;8.90;6.35;;;;;;;20.40;52.92;99224.41;4376135;32;33767;-87
2023/09/11 04:35:47;;;;;;;9.88;6.95;;;;;;;20.44;52.93;99226.03;4380327;32;33982;-96
2023/09/11 04:38:15;;;;;;;8.95;7.32;;;;;;;20.35;53.21;99224.53;4375678;32;34657;-84
2023/09/11 04:40:42;;;;;;;10.60;6.80;;;;;;;20.46;53.03;99223.37;4375428;32;34391;-84
2023/09/11 04:43:10;;;;;;;10.13;6.68;;;;;;;20.45;53.07;99219.00;4375386;32;33849;-95
2023/09/11 04:45:38;;;;;;;9.75;7.22;;;;;;;20.57;53.04;99222.22;4375095;32;34155;-85
2023/09/11 04:48:07;;;;;;;10.10;7.18;;;;;;;20.68;53.06;99224.53;4375455;32;34825;-84
2023/09/11 04:50:35;;;;;;;10.27;7.62;;;;;;;20.90;52.81;99219.53;4374834;32;33459;-83
2023/09/11 04:53:03;;;;;;;11.38;7.53;;;;;;;21.13;52.33;99222.38;4376568;32;34854;-88
2023/09/11 04:55:32;;;;;;;10.07;7.05;;;;;;;21.30;52.01;99219.25;4375190;32;34166;-84
2023/09/11 04:58:00;;;;;;;11.80;6.97;;;;;;;21.52;51.54;99218.66;4375528;32;33945;-84
2023/09/11 05:00:27;;;;;;;10.63;7.25;;;;;;;21.69;51.49;99211.03;4375701;32;33335;-85
2023/09/11 05:02:55;;;;;;;9.27;6.32;;;;;;;21.77;51.48;99219.56;4372790;32;35047;-84
2023/09/11 05:05:23;;;;;;;9.15;6.68;;;;;;;21.97;50.61;99215.44;4387489;32;34322;-84
2023/09/11 05:07:51;;;;;;;10.55;6.70;;;;;;;22.14;50.67;99215.78;4360088;32;33930;-84
2023/09/11 05:10:20;;;;;;;8.82;6.60;;;;;;;22.32;50.61;99209.88;4361192;32;33631;-84
2023/09/11 05:12:48;;;;;;;9.73;6.32;;;;;;;22.47;50.19;99210.25;4360220;32;33598;-84
2023/09/11 05:15:15;;;;;;;12.35;6.87;;;;;;;22.57;49.97;99212.50;4360024;32;34169;-85
2023/09/11 05:17:43;;;;;;;10.75;6.12;;;;;;;22.70;49.95;99217.38;4360480;32;34195;-85
2023/09/11 05:20:11;;;;;;;9.05;6.10;;;;;;;22.87;49.91;99219.38;4359655;32;33237;-84
2023/09/11 05:22:40;;;;;;;12.25;6.93;;;;;;;22.92;49.23;99214.81;4360273;32;34337;-83
2023/09/11 05:25:08;;;;;;;10.38;6.28;;;;;;;23.05;49.62;99213.47;4358977;32;35090;-85
2023/09/11 05:27:35;;;;;;;10.30;6.28;;;;;;;23.24;48.78;99214.50;4359027;32;33425;-85
2023/09/11 05:30:04;;;;;;;10.00;6.07;;;;;;;23.38;49.06;99218.41;4361047;32;33257;-86
2023/09/11 05:32:32;;;;;;;11.18;7.07;;;;;;;23.40;48.40;99217.41;4360380;32;34740;-85
2023/09/11 05:35:00;;;;;;;10.95;6.53;;;;;;;23.42;47.83;99218.22;4360391;32;33932;-84
2023/09/11 05:37:28;;;;;;;9.80;6.25;;;;;;;23.54;48.42;99216.87;4363218;32;33499;-84
2023/09/11 05:39:55;;;;;;;10.77;6.40;;;;;;;23.65;48.16;99214.66;4357995;32;33852;-86
2023/09/11 05:42:23;;;;;;;12.02;6.30;;;;;;;23.73;48.02;99207.31;4365306;32;35058;-86
2023/09/11 05:44:51;;;;;;;12.00;6.97;;;;;;;23.70;47.89;99207.44;4362314;32;34179;-85
2023/09/11 05:47:19;;;;;;;9.68;7.15;;;;;;;23.83;47.92;99204.28;4361795;32;34491;-85
2023/09/11 05:49:47;;;;;;;12.95;7.10;;;;;;;23.80;48.46;99210.56;4362464;32;33137;-86
2023/09/11 05:52:15;;;;;;;9.20;6.82;;;;;;;23.67;48.82;99220.78;4361704;32;34237;-86
2023/09/11 05:54:42;;;;;;;11.90;7.10;;;;;;;23.71;48.51;99206.50;4362597;32;33759;-86
2023/09/11 05:57:10;;;;;;;11.18;6.80;;;;;;;23.74;48.29;99211.66;4362041;32;34384;-86
2023/09/11 05:59:37;;;;;;;13.23;7.00;;;;;;;23.69;48.73;99221.59;4361653;32;33136;-86
2023/09/11 06:02:05;;;;;;;10.02;6.70;;;;;;;23.71;49.27;99214.44;4361355;32;34070;-86
2023/09/11 06:04:34;;;;;;;12.82;6.82;;;;;;;23.79;50.02;99216.81;4361507;32;33806;-86
2023/09/11 06:07:03;;;;;;;10.93;6.70;;;;;;;23.59;51.17;99221.97;4363726;32;34575;-86
2023/09/11 06:09:31;;;;;;;7.82;5.93;;;;;;;23.70;50.02;99218.00;4376382;32;33297;-86
2023/09/11 06:11:58;;;;;;;11.55;6.25;;;;;;;23.57;50.14;99221.19;4376424;32;33730;-86
2023/09/11 06:14:26;;;;;;;9.60;6.90;;;;;;;23.72;50.07;99216.19;4376348;32;34937;-86
2023/09/11 06:51:36;;;;;;;12.45;6.87;;;;;;;24.36;50.52;99231.19;5052022;27;20148;-85
2023/09/11 06:54:07;;;;;;;12.77;6.15;;;;;;;24.35;49.80;99223.28;4361258;32;33286;-85
2023/09/11 06:56:36;;;;;;;11.05;6.30;;;;;;;24.40;50.04;99227.53;4348038;32;34356;-85
2023/09/11 06:59:03;;;;;;;12.07;6.80;;;;;;;24.41;49.48;99231.03;4361098;32;34696;-85
2023/09/11 07:01:31;;;;;;;11.27;6.60;;;;;;;24.27;50.03;99239.53;4361236;32;33663;-85
2023/09/11 07:03:59;;;;;;;13.35;6.65;;;;;;;24.38;51.23;99233.78;4347560;32;34009;-85
2023/09/11 07:06:27;;;;;;;12.63;6.22;;;;;;;24.48;51.44;99233.34;4347726;32;33193;-85
2023/09/11 07:08:55;;;;;;;15.60;6.43;;;;;;;24.60;51.16;99233.75;4361480;32;34135;-85
2023/09/11 07:11:22;;;;;;;10.43;6.22;;;;;;;24.71;50.45;99239.44;4361485;32;33242;-87
2023/09/11 07:13:54;;;;;;;8.75;5.78;;;;;;;24.69;49.91;99242.16;4347524;32;34814;-87
2023/09/11 07:16:22;;;;;;;10.13;6.37;;;;;;;24.73;50.47;99237.56;4361094;32;33333;-85
2023/09/11 07:18:51;;;;;;;9.82;6.32;;;;;;;24.78;50.40;99238.25;4347351;32;33478;-87
2023/09/11 07:21:18;;;;;;;9.95;6.00;;;;;;;24.82;49.68;99238.97;4347528;32;35027;-85
2023/09/11 07:23:47;;;;;;;14.10;6.62;;;;;;;24.83;50.43;99243.34;4347619;32;33473;-85
2023/09/11 07:26:14;;;;;;;11.73;6.30;;;;;;;25.09;50.49;99240.38;4347338;32;33045;-85
2023/09/11 07:28:54;;;;;;;12.80;7.15;;;;;;;25.34;49.77;99247.25;4360974;32;34074;-85
2023/09/11 07:31:23;;;;;;;12.27;6.82;;;;;;;25.62;49.91;99255.66;4347409;32;34816;-84
2023/09/11 07:33:51;;;;;;;12.00;6.43;;;;;;;25.93;46.65;99244.44;4347010;32;33736;-85
2023/09/11 07:36:19;;;;;;;12.68;6.28;;;;;;;25.87;46.61;99251.81;4347443;32;33358;-85
2023/09/11 07:38:47;;;;;;;14.38;7.00;;;;;;;26.25;47.19;99251.75;4347240;32;33787;-85
2023/09/11 07:41:16;;;;;;;16.17;6.80;;;;;;;26.27;46.75;99247.22;4360831;32;34178;-83
2023/09/11 07:43:50;;;;;;;12.88;6.70;;;;;;;26.51;46.19;99251.31;4347320;32;33443;-85
2023/09/11 07:46:20;;;;;;;13.98;6.65;;;;;;;26.64;44.83;99254.22;4335809;32;33127;-84
2023/09/11 07:48:50;;;;;;;12.50;6.40;;;;;;;27.05;43.88;99252.03;4360718;32;34139;-84
2023/09/11 07:51:18;;;;;;;17.65;6.80;;;;;;;26.99;44.89;99251.50;4347562;32;33823;-84
2023/09/11 07:53:46;;;;;;;11.80;6.32;;;;;;;27.15;44.87;99252.41;4360677;32;34744;-84
2023/09/11 07:56:13;;;;;;;11.15;6.00;;;;;;;27.36;43.34;99253.06;4347402;32;33417;-84
2023/09/11 07:58:41;;;;;;;11.52;6.00;;;;;;;27.48;42.43;99252.41;4360831;32;34655;-84
2023/09/11 08:01:09;;;;;;;12.30;6.35;;;;;;;27.24;42.89;99243.97;4347179;32;34887;-84
2023/09/11 08:03:37;;;;;;;12.15;6.30;;;;;;;27.30;43.30;99245.41;4360506;32;34930;-84
2023/09/11 08:06:05;;;;;;;13.00;6.05;;;;;;;27.49;42.67;99246.13;4346748;32;34074;-84
2023/09/11 08:08:32;;;;;;;13.27;6.35;;;;;;;27.46;43.60;99246.28;4360643;32;34101;-84
2023/09/11 08:11:15;;;;;;;10.70;6.00;;;;;;;27.84;43.21;99241.53;4360700;32;34250;-84
2023/09/11 08:13:43;;;;;;;18.33;6.03;;;;;;;28.08;40.99;99239.25;4347050;32;33557;-84
2023/09/11 08:16:11;;;;;;;10.25;5.78;;;;;;;28.10;41.67;99233.81;4347149;32;33251;-84
2023/09/11 08:18:38;;;;;;;9.43;5.40;;;;;;;28.48;39.58;99230.72;4360431;32;33861;-85
2023/09/11 08:21:06;;;;;;;9.93;5.07;;;;;;;28.46;39.79;99232.66;4360406;32;34906;-85
2023/09/11 08:23:34;;;;;;;9.75;5.60;;;;;;;28.02;38.54;99236.94;4347182;32;33588;-84
2023/09/11 08:26:02;;;;;;;9.27;4.82;;;;;;;28.15;38.25;99234.44;4347008;32;34048;-84
2023/09/11 08:28:30;;;;;;;11.82;5.12;;;;;;;27.95;39.93;99238.22;4360293;32;33568;-85
2023/09/11 08:30:58;;;;;;;10.18;5.57;;;;;;;28.06;40.75;99241.13;4346995;32;34203;-84
2023/09/11 08:33:25;;;;;;;10.10;5.30;;;;;;;28.49;36.70;99228.00;4360538;32;33488;-84
2023/09/11 08:36:01;;;;;;;11.50;5.28;;;;;;;28.38;38.38;99225.09;4348028;32;33271;-84
2023/09/11 08:38:28;;;;;;;8.40;5.57;;;;;;;28.56;38.83;99226.66;4347084;32;33825;-85
2023/09/11 08:40:56;;;;;;;13.90;6.62;;;;;;;28.54;39.15;99223.22;4360317;32;34425;-84
2023/09/11 08:43:24;;;;;;;14.68;6.80;;;;;;;28.75;37.01;99222.87;4360831;32;34898;-84
2023/09/11 08:45:54;;;;;;;16.37;6.87;;;;;;;29.12;35.67;99226.81;4360456;32;33126;-85
2023/09/11 08:48:27;;;;;;;12.23;5.50;;;;;;;28.70;36.25;99223.16;4346828;32;34839;-85
2023/09/11 08:50:58;;;;;;;10.65;5.95;;;;;;;28.67;36.42;99220.66;4346906;32;34799;-85
2023/09/11 08:53:25;;;;;;;9.88;5.50;;;;;;;28.84;37.41;99224.97;4346891;32;34247;-84
2023/09/11 08:55:54;;;;;;;10.18;5.12;;;;;;;29.01;36.30;99224.81;4346728;32;33089;-84
2023/09/11 08:58:23;;;;;;;15.52;5.32;;;;;;;29.21;34.60;99215.59;4346954;32;33192;-84
2023/09/11 09:00:50;;;;;;;14.90;5.60;;;;;;;29.04;35.51;99215.75;4346603;32;34943;-85
2023/09/11 09:03:19;;;;;;;15.55;5.87;;;;;;;29.14;35.78;99213.41;4346790;32;33688;-85
2023/09/11 09:05:47;;;;;;;9.98;5.57;;;;;;;28.54;35.96;99209.88;4360234;32;33182;-84
2023/09/11 09:08:15;;;;;;;11.48;5.45;;;;;;;29.04;35.94;99207.75;4360410;32;33262;-84
2023/09/11 09:10:43;;;;;;;11.52;5.18;;;;;;;29.33;35.22;99213.94;4346964;32;34203;-84
2023/09/11 09:13:11;;;;;;;13.93;5.32;;;;;;;29.35;35.56;99212.00;4346857;32;34500;-84
2023/09/11 09:15:41;;;;;;;11.80;5.43;;;;;;;29.55;35.52;99214.28;4359903;32;33110;-84
2023/09/11 09:18:09;;;;;;;12.55;4.90;;;;;;;29.50;35.28;99215.53;4345797;32;33591;-83
2023/09/11 09:20:38;;;;;;;16.98;5.00;;;;;;;29.65;35.28;99203.88;4346757;32;34194;-83
2023/09/11 09:23:06;;;;;;;13.07;5.57;;;;;;;29.44;35.67;99214.13;4346496;32;32533;-85
2023/09/11 09:25:33;;;;;;;9.40;4.93;;;;;;;29.65;34.44;99214.56;4360035;32;33394;-85
2023/09/11 09:28:01;;;;;;;15.68;5.93;;;;;;;29.66;34.65;99210.91;4360174;32;34658;-86
2023/09/11 09:30:31;;;;;;;14.63;5.90;;;;;;;29.72;34.70;99207.00;4359693;32;34593;-84
2023/09/11 09:33:01;;;;;;;13.35;5.50;;;;;;;29.53;35.31;99210.84;4346584;32;33986;-84
2023/09/11 09:35:31;;;;;;;9.88;5.28;;;;;;;29.87;34.76;99203.31;4346513;32;33355;-84
2023/09/11 09:38:00;;;;;;;10.50;5.20;;;;;;;29.77;34.72;99208.41;4346481;32;34071;-84
2023/09/11 09:40:35;;;;;;;13.07;5.22;;;;;;;29.58;34.05;99207.91;4346627;32;35192;-84
2023/09/11 09:43:05;;;;;;;10.05;5.05;;;;;;;29.74;35.44;99197.09;4359585;32;34166;-84
2023/09/11 09:45:39;;;;;;;11.68;5.95;;;;;;;29.83;35.63;99199.16;4346020;32;34032;-84
2023/09/11 09:48:20;;;;;;;15.05;5.32;;;;;;;29.43;35.17;99195.50;4359759;32;33712;-85
2023/09/11 09:50:58;;;;;;;8.85;5.40;;;;;;;29.49;34.10;99192.44;4359641;32;34261;-84
2023/09/11 09:53:28;;;;;;;13.88;5.53;;;;;;;29.90;34.36;99195.09;4346105;32;33857;-85
2023/09/11 09:56:07;;;;;;;10.05;5.30;;;;;;;29.77;34.76;99192.37;4359473;32;32819;-86
2023/09/11 09:58:37;;;;;;;14.80;5.35;;;;;;;30.01;34.62;99192.59;4346232;32;34724;-84
2023/09/11 10:01:07;;;;;;;15.88;6.40;;;;;;;30.13;34.99;99187.38;4359482;32;34520;-84
2023/09/11 10:03:48;;;;;;;11.10;5.40;;;;;;;30.23;35.00;99181.34;4346132;32;34016;-84
2023/09/11 10:06:21;;;;;;;23.52;6.20;;;;;;;30.05;33.92;99186.06;4345897;32;33271;-84
2023/09/11 10:09:12;;;;;;;13.15;5.93;;;;;;;30.18;33.46;99177.25;4359641;32;34721;-86
2023/09/11 10:11:41;;;;;;;12.43;5.82;;;;;;;29.85;34.15;99178.50;4345983;32;34253;-85
2023/09/11 10:14:10;;;;;;;14.40;5.97;;;;;;;30.24;33.60;99171.50;4345987;32;33647;-84
2023/09/11 10:16:38;;;;;;;12.40;5.68;;;;;;;30.29;35.06;99167.53;4345977;32;33270;-84
2023/09/11 10:19:06;;;;;;;11.55;5.95;;;;;;;30.34;34.24;99167.19;4345795;32;34560;-85
2023/09/11 10:21:35;;;;;;;12.90;5.90;;;;;;;30.41;31.66;99160.47;4345756;32;33794;-84
2023/09/11 10:24:02;;;;;;;16.02;5.97;;;;;;;30.74;31.56;99157.31;4345641;32;33608;-85
2023/09/11 10:26:46;;;;;;;15.85;5.82;;;;;;;30.45;31.60;99155.75;4345500;32;32539;-85
2023/09/11 10:29:22;;;;;;;14.87;5.78;;;;;;;30.77;31.17;99150.88;4334850;32;32356;-86
2023/09/11 10:32:01;;;;;;;13.40;6.45;;;;;;;30.75;31.99;99145.63;4347907;32;33528;-84
2023/09/11 10:34:28;;;;;;;13.07;5.95;;;;;;;30.57;32.51;99148.69;4361257;32;33517;-85
2023/09/11 10:36:58;;;;;;;10.32;6.32;;;;;;;30.86;33.11;99144.00;4347666;32;34536;-85
2023/09/11 10:39:26;;;;;;;12.07;6.65;;;;;;;30.99;33.70;99139.50;4347778;32;34363;-84
2023/09/11 10:41:54;;;;;;;15.25;6.45;;;;;;;30.90;32.72;99135.66;4361151;32;35134;-85
2023/09/11 10:44:21;;;;;;;14.77;5.80;;;;;;;31.16;31.42;99125.75;4361485;32;33786;-85
2023/09/11 10:46:50;;;;;;;14.07;5.60;;;;;;;31.10;33.11;99134.19;4361338;32;33163;-85
2023/09/11 10:49:23;;;;;;;12.70;5.68;;;;;;;31.27;34.06;99138.34;4347928;32;33484;-85
2023/09/11 10:51:50;;;;;;;13.05;5.18;;;;;;;31.41;31.10;99132.87;4335493;32;33666;-85
2023/09/11 10:54:22;;;;;;;10.43;4.97;;;;;;;31.58;31.27;99133.44;4347974;32;33688;-86
2023/09/11 10:56:51;;;;;;;11.18;5.12;;;;;;;31.32;31.35;99130.84;4347471;32;33242;-86
2023/09/11 10:59:22;;;;;;;12.68;6.35;;;;;;;31.21;30.99;99130.75;4361213;32;33830;-84
2023/09/11 11:01:50;;;;;;;13.88;5.30;;;;;;;31.24;29.99;99128.72;4335346;32;33177;-84
2023/09/11 11:04:18;;;;;;;13.25;5.47;;;;;;;31.24;30.47;99115.31;4347509;32;33907;-84
2023/09/11 11:06:48;;;;;;;9.85;4.70;;;;;;;31.62;29.86;99124.19;4347890;32;33084;-85
2023/09/11 11:09:28;;;;;;;12.70;5.07;;;;;;;31.41;29.96;99124.00;4347705;32;34376;-84
2023/09/11 11:12:01;;;;;;;10.43;4.72;;;;;;;31.30;29.87;99116.72;4360814;32;34642;-84
2023/09/11 11:14:29;;;;;;;10.73;4.60;;;;;;;31.32;30.59;99121.97;4347608;32;34492;-84
2023/09/11 11:17:04;;;;;;;9.23;4.18;;;;;;;31.61;29.06;99115.31;4347562;32;32922;-84
2023/09/11 11:19:34;;;;;;;11.98;5.18;;;;;;;31.60;29.03;99110.06;4347651;32;33736;-85
2023/09/11 11:22:03;;;;;;;11.27;5.20;;;;;;;31.55;31.58;99117.59;4347396;32;33873;-84
2023/09/11 11:24:34;;;;;;;15.27;5.45;;;;;;;31.93;30.07;99115.56;4360882;32;34590;-84
2023/09/11 11:27:03;;;;;;;10.15;5.37;;;;;;;32.09;28.05;99109.91;4347738;32;33360;-84
2023/09/11 11:29:32;;;;;;;10.70;4.93;;;;;;;31.93;27.93;99112.03;4347400;32;34118;-84
2023/09/11 11:32:01;;;;;;;15.57;4.87;;;;;;;31.66;28.90;99113.12;4361056;32;33892;-84
2023/09/11 11:34:31;;;;;;;11.45;4.45;;;;;;;32.01;28.83;99109.63;4335165;32;32472;-84
2023/09/11 11:37:03;;;;;;;15.10;4.72;;;;;;;31.68;28.75;99097.81;4348180;32;33015;-85
2023/09/11 11:39:35;;;;;;;9.77;4.72;;;;;;;31.85;29.45;99099.22;4360130;32;33792;-84
2023/09/11 11:42:04;;;;;;;11.65;5.03;;;;;;;31.98;28.62;99097.31;4360946;32;33692;-84
2023/09/11 11:44:33;;;;;;;11.93;5.03;;;;;;;31.68;28.39;99086.22;4347458;32;33757;-86
2023/09/11 11:47:01;;;;;;;11.12;4.47;;;;;;;31.80;29.13;99089.81;4360869;32;33340;-84
2023/09/11 11:49:29;;;;;;;10.35;4.97;;;;;;;31.74;28.23;99083.06;4360721;32;34492;-84
2023/09/11 11:52:00;;;;;;;15.15;5.60;;;;;;;31.87;28.88;99083.88;4347191;32;33925;-84
2023/09/11 11:54:29;;;;;;;9.30;4.53;;;;;;;31.69;29.59;99080.75;4360687;32;32889;-84
2023/09/11 11:56:58;;;;;;;15.88;5.65;;;;;;;31.78;29.91;99086.37;4360760;32;34469;-84
2023/09/11 11:59:48;;;;;;;9.48;4.85;;;;;;;32.15;28.31;99079.06;4347414;32;34374;-84
2023/09/11 12:02:23;;;;;;;14.63;4.45;;;;;;;32.15;29.52;99079.06;4347556;32;34523;-84
2023/09/11 12:04:55;;;;;;;14.68;5.28;;;;;;;32.38;27.70;99063.84;4347397;32;33768;-83
2023/09/11 12:07:23;;;;;;;10.18;4.78;;;;;;;32.23;28.71;99069.44;4335008;32;32667;-84
2023/09/11 12:09:51;;;;;;;9.05;5.00;;;;;;;32.28;28.01;99061.06;4347139;32;33506;-86
2023/09/11 12:12:19;;;;;;;9.23;4.80;;;;;;;32.29;26.57;99061.91;4360680;32;34182;-84
2023/09/11 12:14:47;;;;;;;12.93;5.28;;;;;;;32.22;28.12;99061.53;4346933;32;34893;-84